SBI23F ULLI-UWKD
Flight info
| Callsign | SBI23F |
|---|---|
| Flight time | N/A |
| Altitude | 37000 |
| Route | SUGIN1C SUGIN T873 NIRGI T73 DESUD P164 ROKUR T784 ADMUL L94 UNORO T788 KOROM KOROM1R |
| Aircraft | B738/M-SDE2E3FGHIRWXY/LB1 |
Departure
| Time | 2026-05-07 18:52 |
|---|---|
| Airport | Pulkovo Airport (ULLI) |
Arrival
| Time | N/A |
|---|---|
| Airport | Kazan International Airport (UWKD) |
| Time | Latitude | Longitude | Altitude | Speed | Heading |
|---|---|---|---|---|---|
| 2026-05-07 18:30 | 59.80037 | 30.26424 | 68 ft | 0 kts | 106° |
| 2026-05-07 18:45 | 59.80035 | 30.26434 | 70 ft | 3 kts | 106° |
| 2026-05-07 18:45 | 59.80029 | 30.26488 | 72 ft | 5 kts | 92° |
| 2026-05-07 18:45 | 59.80077 | 30.26566 | 67 ft | 13 kts | 17° |
| 2026-05-07 18:45 | 59.80163 | 30.26616 | 67 ft | 13 kts | 16° |
| 2026-05-07 18:46 | 59.80247 | 30.26665 | 67 ft | 13 kts | 17° |
| 2026-05-07 18:46 | 59.80330 | 30.26716 | 65 ft | 12 kts | 17° |
| 2026-05-07 18:46 | 59.80402 | 30.26744 | 71 ft | 3 kts | 340° |
| 2026-05-07 18:46 | 59.80419 | 30.26711 | 65 ft | 5 kts | 302° |
| 2026-05-07 18:47 | 59.80437 | 30.26608 | 72 ft | 10 kts | 283° |
| 2026-05-07 18:47 | 59.80457 | 30.26468 | 72 ft | 11 kts | 287° |
| 2026-05-07 18:47 | 59.80480 | 30.26320 | 63 ft | 12 kts | 287° |
| 2026-05-07 18:47 | 59.80505 | 30.26149 | 64 ft | 14 kts | 287° |
| 2026-05-07 18:48 | 59.80533 | 30.25957 | 62 ft | 15 kts | 286° |
| 2026-05-07 18:48 | 59.80566 | 30.25741 | 67 ft | 17 kts | 287° |
| 2026-05-07 18:48 | 59.80601 | 30.25505 | 66 ft | 18 kts | 287° |
| 2026-05-07 18:48 | 59.80635 | 30.25275 | 62 ft | 17 kts | 287° |
| 2026-05-07 18:49 | 59.80669 | 30.25051 | 69 ft | 16 kts | 287° |
| 2026-05-07 18:49 | 59.80700 | 30.24840 | 65 ft | 16 kts | 286° |
| 2026-05-07 18:49 | 59.80724 | 30.24680 | 63 ft | 10 kts | 293° |
| 2026-05-07 18:49 | 59.80781 | 30.24603 | 68 ft | 10 kts | 345° |
| 2026-05-07 18:50 | 59.80845 | 30.24571 | 64 ft | 9 kts | 347° |
| 2026-05-07 18:50 | 59.80907 | 30.24548 | 65 ft | 9 kts | 353° |
| 2026-05-07 18:50 | 59.80958 | 30.24606 | 63 ft | 10 kts | 73° |
| 2026-05-07 18:50 | 59.80954 | 30.24693 | 63 ft | 0 kts | 103° |
| 2026-05-07 18:51 | 59.80919 | 30.24918 | 64 ft | 58 kts | 107° |
| 2026-05-07 18:51 | 59.80716 | 30.26272 | 68 ft | 144 kts | 107° |
| 2026-05-07 18:51 | 59.80363 | 30.28551 | 441 ft | 191 kts | 108° |
| 2026-05-07 18:52 | 59.79950 | 30.31190 | 1407 ft | 200 kts | 107° |
| 2026-05-07 18:52 | 59.79560 | 30.33793 | 2526 ft | 205 kts | 105° |
| 2026-05-07 18:52 | 59.79149 | 30.36671 | 3007 ft | 223 kts | 104° |
| 2026-05-07 18:52 | 59.78727 | 30.39733 | 3476 ft | 240 kts | 106° |
| 2026-05-07 18:53 | 59.78166 | 30.42956 | 4051 ft | 254 kts | 105° |
| 2026-05-07 18:53 | 59.77677 | 30.46314 | 5052 ft | 253 kts | 104° |
| 2026-05-07 18:53 | 59.77195 | 30.49669 | 6010 ft | 253 kts | 104° |
| 2026-05-07 18:53 | 59.76700 | 30.53029 | 6921 ft | 256 kts | 104° |
| 2026-05-07 18:54 | 59.76189 | 30.56452 | 7666 ft | 263 kts | 104° |
| 2026-05-07 18:54 | 59.75677 | 30.59979 | 8448 ft | 268 kts | 104° |
| 2026-05-07 18:54 | 59.75164 | 30.63579 | 9233 ft | 273 kts | 104° |
| 2026-05-07 18:54 | 59.74642 | 30.67251 | 9924 ft | 281 kts | 105° |
| 2026-05-07 18:55 | 59.74098 | 30.71066 | 10436 ft | 297 kts | 105° |
| 2026-05-07 18:55 | 59.73500 | 30.75184 | 10622 ft | 323 kts | 105° |
| 2026-05-07 18:55 | 59.72868 | 30.79613 | 10897 ft | 344 kts | 105° |
| 2026-05-07 18:55 | 59.72204 | 30.84261 | 11437 ft | 355 kts | 105° |
| 2026-05-07 18:56 | 59.71514 | 30.89013 | 12038 ft | 363 kts | 106° |
| 2026-05-07 18:56 | 59.70801 | 30.93874 | 12652 ft | 371 kts | 107° |
| 2026-05-07 18:56 | 59.70087 | 30.98812 | 13355 ft | 375 kts | 107° |
| 2026-05-07 18:56 | 59.69361 | 31.03814 | 14018 ft | 381 kts | 108° |
| 2026-05-07 18:57 | 59.68621 | 31.08897 | 14653 ft | 387 kts | 108° |
| 2026-05-07 18:57 | 59.67867 | 31.14050 | 15290 ft | 392 kts | 109° |
| 2026-05-07 18:57 | 59.67098 | 31.19270 | 15894 ft | 398 kts | 109° |
| 2026-05-07 18:57 | 59.66316 | 31.24551 | 16507 ft | 403 kts | 109° |
| 2026-05-07 18:58 | 59.65522 | 31.29904 | 17094 ft | 408 kts | 109° |
| 2026-05-07 18:58 | 59.64715 | 31.35317 | 17647 ft | 414 kts | 110° |
| 2026-05-07 18:58 | 59.63901 | 31.40808 | 18249 ft | 418 kts | 110° |
| 2026-05-07 18:58 | 59.63102 | 31.46381 | 18808 ft | 422 kts | 110° |
| 2026-05-07 18:59 | 59.62271 | 31.51954 | 19359 ft | 426 kts | 111° |
| 2026-05-07 18:59 | 59.61407 | 31.57601 | 19923 ft | 430 kts | 111° |
| 2026-05-07 18:59 | 59.60536 | 31.63268 | 20468 ft | 434 kts | 112° |
| 2026-05-07 18:59 | 59.59657 | 31.68997 | 20973 ft | 438 kts | 111° |
| 2026-05-07 19:00 | 59.58772 | 31.74781 | 21497 ft | 442 kts | 112° |
| 2026-05-07 19:00 | 59.57893 | 31.80535 | 21999 ft | 445 kts | 112° |
| 2026-05-07 19:00 | 59.56984 | 31.86477 | 22460 ft | 449 kts | 112° |
| 2026-05-07 19:00 | 59.56074 | 31.92410 | 22900 ft | 453 kts | 112° |
| 2026-05-07 19:01 | 59.55167 | 31.98305 | 23365 ft | 456 kts | 112° |
| 2026-05-07 19:01 | 59.54226 | 32.04385 | 23818 ft | 460 kts | 113° |
| 2026-05-07 19:01 | 59.53144 | 32.10185 | 24238 ft | 453 kts | 125° |
| 2026-05-07 19:01 | 59.51314 | 32.15086 | 24663 ft | 438 kts | 142° |
| 2026-05-07 19:02 | 59.49157 | 32.19281 | 25164 ft | 436 kts | 144° |
| 2026-05-07 19:02 | 59.46966 | 32.23453 | 25574 ft | 439 kts | 144° |
| 2026-05-07 19:02 | 59.44767 | 32.27635 | 25955 ft | 442 kts | 144° |
| 2026-05-07 19:02 | 59.42557 | 32.31861 | 26364 ft | 444 kts | 144° |
| 2026-05-07 19:03 | 59.40336 | 32.36133 | 26726 ft | 447 kts | 144° |
| 2026-05-07 19:03 | 59.38115 | 32.40424 | 27116 ft | 449 kts | 144° |
| 2026-05-07 19:03 | 59.35893 | 32.44728 | 27497 ft | 451 kts | 144° |
| 2026-05-07 19:03 | 59.33653 | 32.49065 | 27835 ft | 453 kts | 144° |
| 2026-05-07 19:04 | 59.31404 | 32.53413 | 28150 ft | 455 kts | 144° |
| 2026-05-07 19:04 | 59.29145 | 32.57771 | 28464 ft | 458 kts | 144° |
| 2026-05-07 19:04 | 59.26868 | 32.62156 | 28779 ft | 460 kts | 144° |
| 2026-05-07 19:04 | 59.24582 | 32.66550 | 29091 ft | 462 kts | 144° |
| 2026-05-07 19:05 | 59.22281 | 32.70962 | 29411 ft | 463 kts | 144° |
| 2026-05-07 19:05 | 59.19984 | 32.75357 | 29729 ft | 464 kts | 145° |
| 2026-05-07 19:05 | 59.17667 | 32.79779 | 30006 ft | 466 kts | 145° |
| 2026-05-07 19:05 | 59.15338 | 32.84214 | 30244 ft | 469 kts | 145° |
| 2026-05-07 19:06 | 59.13001 | 32.88656 | 30475 ft | 472 kts | 145° |
| 2026-05-07 19:06 | 59.08297 | 32.97581 | 31118 ft | 471 kts | 145° |
| 2026-05-07 19:06 | 59.05950 | 33.02024 | 31513 ft | 469 kts | 145° |
| 2026-05-07 19:07 | 59.03610 | 33.06442 | 31860 ft | 468 kts | 145° |
| 2026-05-07 19:07 | 59.01274 | 33.10840 | 32166 ft | 468 kts | 145° |
| 2026-05-07 19:07 | 58.98959 | 33.15184 | 32416 ft | 469 kts | 145° |
| 2026-05-07 19:07 | 58.96578 | 33.19648 | 32691 ft | 469 kts | 145° |
| 2026-05-07 19:08 | 58.94274 | 33.23966 | 33030 ft | 468 kts | 145° |
| 2026-05-07 19:08 | 58.91937 | 33.28335 | 33376 ft | 466 kts | 146° |
| 2026-05-07 19:08 | 58.89606 | 33.32678 | 33657 ft | 465 kts | 146° |
| 2026-05-07 19:08 | 58.87265 | 33.37026 | 33912 ft | 466 kts | 146° |
| 2026-05-07 19:09 | 58.84938 | 33.41339 | 34196 ft | 465 kts | 146° |
| 2026-05-07 19:09 | 58.82603 | 33.45662 | 34492 ft | 464 kts | 146° |
| 2026-05-07 19:09 | 58.80270 | 33.49976 | 34744 ft | 464 kts | 145° |
| 2026-05-07 19:09 | 58.77936 | 33.54280 | 34894 ft | 466 kts | 146° |
| 2026-05-07 19:10 | 58.75593 | 33.58591 | 35101 ft | 466 kts | 145° |
| 2026-05-07 19:10 | 58.73249 | 33.62900 | 35377 ft | 465 kts | 145° |
| 2026-05-07 19:10 | 58.70909 | 33.67198 | 35643 ft | 464 kts | 145° |
| 2026-05-07 19:10 | 58.68577 | 33.71470 | 35851 ft | 464 kts | 145° |
| 2026-05-07 19:11 | 58.66223 | 33.75770 | 36008 ft | 466 kts | 145° |
| 2026-05-07 19:11 | 58.63874 | 33.80055 | 36197 ft | 466 kts | 145° |
| 2026-05-07 19:11 | 58.61524 | 33.84334 | 36436 ft | 465 kts | 145° |
| 2026-05-07 19:11 | 58.59179 | 33.88599 | 36658 ft | 465 kts | 145° |
| 2026-05-07 19:12 | 58.56831 | 33.92862 | 36910 ft | 463 kts | 145° |
| 2026-05-07 19:12 | 58.54490 | 33.97100 | 37011 ft | 465 kts | 145° |
| 2026-05-07 19:12 | 58.49793 | 34.05574 | 36992 ft | 461 kts | 145° |
| 2026-05-07 19:13 | 58.45170 | 34.13896 | 36993 ft | 454 kts | 145° |
| 2026-05-07 19:13 | 58.40565 | 34.22137 | 36981 ft | 454 kts | 145° |
| 2026-05-07 19:14 | 58.35949 | 34.30368 | 36972 ft | 454 kts | 145° |
| 2026-05-07 19:14 | 58.31336 | 34.38569 | 36963 ft | 454 kts | 145° |
| 2026-05-07 19:15 | 58.26709 | 34.46768 | 36963 ft | 455 kts | 146° |
| 2026-05-07 19:15 | 58.22073 | 34.54952 | 36965 ft | 455 kts | 146° |
| 2026-05-07 19:16 | 58.17377 | 34.62964 | 36960 ft | 452 kts | 148° |
| 2026-05-07 19:16 | 58.12531 | 34.70542 | 36960 ft | 452 kts | 149° |
| 2026-05-07 19:17 | 58.07671 | 34.78078 | 36956 ft | 453 kts | 149° |
| 2026-05-07 19:17 | 58.02813 | 34.85674 | 36951 ft | 454 kts | 149° |
| 2026-05-07 19:18 | 57.98767 | 34.92015 | 36957 ft | 455 kts | 149° |
| 2026-05-07 19:18 | 57.93130 | 35.00947 | 36958 ft | 457 kts | 146° |
| 2026-05-07 19:19 | 57.89013 | 35.07235 | 36956 ft | 454 kts | 149° |
| 2026-05-07 19:19 | 57.84104 | 35.14760 | 36950 ft | 457 kts | 148° |
| 2026-05-07 19:20 | 57.79243 | 35.22341 | 36941 ft | 457 kts | 148° |
| 2026-05-07 19:20 | 57.74335 | 35.29929 | 36946 ft | 458 kts | 148° |
| 2026-05-07 19:21 | 57.69407 | 35.37494 | 36945 ft | 458 kts | 148° |
| 2026-05-07 19:21 | 57.64482 | 35.45025 | 36938 ft | 458 kts | 148° |
| 2026-05-07 19:22 | 57.60143 | 35.53966 | 36949 ft | 475 kts | 128° |
| 2026-05-07 19:22 | 57.58571 | 35.59421 | 36912 ft | 483 kts | 117° |
| 2026-05-07 19:22 | 57.57382 | 35.65305 | 36957 ft | 485 kts | 115° |
| 2026-05-07 19:23 | 57.55147 | 35.77175 | 36944 ft | 486 kts | 115° |
| 2026-05-07 19:23 | 57.52847 | 35.88982 | 36924 ft | 485 kts | 115° |
| 2026-05-07 19:24 | 57.50488 | 36.00730 | 36930 ft | 484 kts | 116° |
| 2026-05-07 19:24 | 57.48124 | 36.12442 | 36919 ft | 484 kts | 115° |
| 2026-05-07 19:25 | 57.45768 | 36.24167 | 36930 ft | 484 kts | 115° |
| 2026-05-07 19:25 | 57.43413 | 36.35852 | 36920 ft | 483 kts | 115° |
| 2026-05-07 19:26 | 57.41046 | 36.47535 | 36905 ft | 483 kts | 115° |
| 2026-05-07 19:26 | 57.38689 | 36.59081 | 36923 ft | 482 kts | 115° |
| 2026-05-07 19:27 | 57.36287 | 36.70770 | 36917 ft | 481 kts | 115° |
| 2026-05-07 19:27 | 57.33915 | 36.82254 | 36914 ft | 480 kts | 115° |
| 2026-05-07 19:28 | 57.31520 | 36.93781 | 36902 ft | 480 kts | 115° |
| 2026-05-07 19:28 | 57.29117 | 37.05289 | 36913 ft | 479 kts | 115° |
| 2026-05-07 19:29 | 57.26714 | 37.16726 | 36903 ft | 478 kts | 115° |
| 2026-05-07 19:29 | 57.24298 | 37.28165 | 36910 ft | 477 kts | 115° |
| 2026-05-07 19:30 | 57.21881 | 37.39544 | 36897 ft | 477 kts | 115° |
| 2026-05-07 19:30 | 57.19448 | 37.50939 | 36895 ft | 476 kts | 115° |
| 2026-05-07 19:31 | 57.17015 | 37.62276 | 36895 ft | 476 kts | 115° |
| 2026-05-07 19:31 | 57.15023 | 37.73946 | 36909 ft | 479 kts | 108° |
| 2026-05-07 19:32 | 57.13387 | 37.85852 | 36893 ft | 480 kts | 107° |
| 2026-05-07 19:32 | 57.11737 | 37.97748 | 36891 ft | 479 kts | 107° |
| 2026-05-07 19:33 | 57.10026 | 38.09596 | 36893 ft | 479 kts | 108° |
| 2026-05-07 19:33 | 57.08284 | 38.21409 | 36907 ft | 478 kts | 108° |
| 2026-05-07 19:34 | 57.06531 | 38.33192 | 36922 ft | 478 kts | 108° |
| 2026-05-07 19:34 | 57.04771 | 38.44952 | 36919 ft | 477 kts | 108° |
| 2026-05-07 19:35 | 57.03002 | 38.56701 | 36917 ft | 477 kts | 108° |
| 2026-05-07 19:35 | 57.01224 | 38.68411 | 36924 ft | 476 kts | 108° |
| 2026-05-07 19:36 | 56.99438 | 38.80107 | 36936 ft | 476 kts | 108° |
| 2026-05-07 19:36 | 56.97642 | 38.91783 | 36937 ft | 475 kts | 108° |
| 2026-05-07 19:37 | 56.95837 | 39.03437 | 36937 ft | 475 kts | 108° |
| 2026-05-07 19:37 | 56.94021 | 39.15074 | 36935 ft | 475 kts | 108° |
| 2026-05-07 19:38 | 56.92195 | 39.26700 | 36934 ft | 475 kts | 108° |
| 2026-05-07 19:38 | 56.90361 | 39.38295 | 36935 ft | 474 kts | 108° |
| 2026-05-07 19:39 | 56.88517 | 39.49873 | 36933 ft | 474 kts | 108° |
| 2026-05-07 19:39 | 56.86665 | 39.61432 | 36936 ft | 474 kts | 108° |
| 2026-05-07 19:40 | 56.84796 | 39.73006 | 36918 ft | 474 kts | 108° |
| 2026-05-07 19:40 | 56.82925 | 39.84537 | 36933 ft | 473 kts | 108° |
| 2026-05-07 19:41 | 56.81045 | 39.96040 | 36929 ft | 473 kts | 108° |
| 2026-05-07 19:41 | 56.79177 | 40.07458 | 36929 ft | 472 kts | 108° |
| 2026-05-07 19:42 | 56.77285 | 40.18965 | 36925 ft | 471 kts | 108° |
| 2026-05-07 19:42 | 56.75396 | 40.30377 | 36930 ft | 470 kts | 108° |
| 2026-05-07 19:43 | 56.73513 | 40.41670 | 36921 ft | 469 kts | 108° |
| 2026-05-07 19:43 | 56.71611 | 40.53009 | 36932 ft | 468 kts | 108° |
| 2026-05-07 19:44 | 56.69702 | 40.64321 | 36916 ft | 467 kts | 108° |
| 2026-05-07 19:44 | 56.67785 | 40.75611 | 36919 ft | 466 kts | 109° |
| 2026-05-07 19:45 | 56.65858 | 40.86877 | 36931 ft | 466 kts | 109° |
| 2026-05-07 19:45 | 56.63927 | 40.98110 | 36916 ft | 466 kts | 109° |
| 2026-05-07 19:46 | 56.61844 | 41.09224 | 36913 ft | 464 kts | 117° |
| 2026-05-07 19:46 | 56.58400 | 41.18998 | 36937 ft | 459 kts | 130° |
| 2026-05-07 19:47 | 56.54502 | 41.28163 | 36914 ft | 459 kts | 130° |
| 2026-05-07 19:47 | 56.50623 | 41.37338 | 36907 ft | 459 kts | 129° |
| 2026-05-07 19:48 | 56.46778 | 41.46524 | 36909 ft | 457 kts | 129° |
| 2026-05-07 19:48 | 56.42941 | 41.55687 | 36911 ft | 456 kts | 129° |
| 2026-05-07 19:49 | 56.39107 | 41.64808 | 36905 ft | 455 kts | 129° |
| 2026-05-07 19:49 | 56.35284 | 41.73864 | 36917 ft | 453 kts | 129° |
| 2026-05-07 19:50 | 56.31465 | 41.82875 | 36904 ft | 451 kts | 129° |
| 2026-05-07 19:50 | 56.27686 | 41.91763 | 36905 ft | 449 kts | 129° |
| 2026-05-07 19:51 | 56.23892 | 42.00654 | 36896 ft | 447 kts | 129° |
| 2026-05-07 19:51 | 56.20450 | 42.09914 | 36896 ft | 447 kts | 115° |
| 2026-05-07 19:52 | 56.18845 | 42.20645 | 36896 ft | 447 kts | 96° |
| 2026-05-07 19:52 | 56.18301 | 42.31762 | 36895 ft | 447 kts | 95° |
| 2026-05-07 19:53 | 56.17759 | 42.42902 | 36894 ft | 448 kts | 96° |
| 2026-05-07 19:53 | 56.17163 | 42.54034 | 36896 ft | 450 kts | 96° |
| 2026-05-07 19:54 | 56.16533 | 42.65264 | 36902 ft | 453 kts | 96° |
| 2026-05-07 19:54 | 56.15886 | 42.76553 | 36893 ft | 456 kts | 96° |
| 2026-05-07 19:55 | 56.15227 | 42.87913 | 36887 ft | 460 kts | 97° |
| 2026-05-07 19:55 | 56.14552 | 42.99375 | 36888 ft | 463 kts | 97° |
| 2026-05-07 19:56 | 56.13864 | 43.10885 | 36896 ft | 466 kts | 97° |
| 2026-05-07 19:56 | 56.13173 | 43.22458 | 36894 ft | 467 kts | 95° |
| 2026-05-07 19:57 | 56.12961 | 43.34101 | 36893 ft | 468 kts | 90° |
| 2026-05-07 19:57 | 56.12939 | 43.45777 | 36890 ft | 468 kts | 90° |
| 2026-05-07 19:58 | 56.12877 | 43.57425 | 36889 ft | 466 kts | 91° |
| 2026-05-07 19:58 | 56.12762 | 43.69025 | 36882 ft | 465 kts | 91° |
| 2026-05-07 19:59 | 56.12625 | 43.80587 | 36888 ft | 463 kts | 91° |
| 2026-05-07 19:59 | 56.12479 | 43.92004 | 36888 ft | 461 kts | 91° |
| 2026-05-07 20:00 | 56.12322 | 44.03536 | 36888 ft | 459 kts | 91° |
| 2026-05-07 20:00 | 56.12159 | 44.14872 | 36884 ft | 457 kts | 91° |
| 2026-05-07 20:01 | 56.11984 | 44.26267 | 36887 ft | 456 kts | 91° |
| 2026-05-07 20:01 | 56.11799 | 44.37625 | 36884 ft | 456 kts | 91° |
| 2026-05-07 20:02 | 56.11603 | 44.48994 | 36895 ft | 457 kts | 92° |
| 2026-05-07 20:02 | 56.11432 | 44.58558 | 36888 ft | 459 kts | 92° |
| 2026-05-07 20:03 | 56.11219 | 44.69939 | 36891 ft | 461 kts | 92° |
| 2026-05-07 20:03 | 56.10996 | 44.81540 | 36892 ft | 464 kts | 92° |
| 2026-05-07 20:04 | 56.10936 | 44.84582 | 36895 ft | 465 kts | 92° |
| 2026-05-07 20:04 | 56.10749 | 44.93990 | 36886 ft | 447 kts | 92° |
| 2026-05-07 20:05 | 56.10508 | 45.05310 | 36917 ft | 457 kts | 92° |
| 2026-05-07 20:05 | 56.10238 | 45.16742 | 36785 ft | 469 kts | 92° |
| 2026-05-07 20:06 | 56.10095 | 45.22652 | 36266 ft | 480 kts | 92° |
| 2026-05-07 20:06 | 56.09942 | 45.28603 | 35710 ft | 478 kts | 94° |
| 2026-05-07 20:06 | 56.09737 | 45.34547 | 35068 ft | 478 kts | 93° |
| 2026-05-07 20:06 | 56.09577 | 45.40507 | 34428 ft | 478 kts | 91° |
| 2026-05-07 20:07 | 56.09451 | 45.46457 | 33808 ft | 478 kts | 91° |
| 2026-05-07 20:07 | 56.09308 | 45.52379 | 33352 ft | 474 kts | 90° |
| 2026-05-07 20:07 | 56.09169 | 45.58256 | 32877 ft | 470 kts | 92° |
| 2026-05-07 20:07 | 56.08992 | 45.64067 | 32413 ft | 466 kts | 91° |
| 2026-05-07 20:08 | 56.08836 | 45.69856 | 31950 ft | 462 kts | 91° |
| 2026-05-07 20:08 | 56.08684 | 45.75586 | 31489 ft | 459 kts | 91° |
| 2026-05-07 20:08 | 56.08529 | 45.81284 | 31033 ft | 455 kts | 91° |
| 2026-05-07 20:08 | 56.08367 | 45.86912 | 30585 ft | 452 kts | 92° |
| 2026-05-07 20:09 | 56.08201 | 45.92513 | 30136 ft | 448 kts | 92° |